createdAt,value
2023-12-19T00:08:59.406Z,4.10
2023-12-19T00:11:27.217Z,4.10
2023-12-19T00:13:56.409Z,4.10
2023-12-19T00:16:24.337Z,4.10
2023-12-19T00:18:52.275Z,4.10
2023-12-19T00:21:20.520Z,4.10
2023-12-19T00:23:48.414Z,4.10
2023-12-19T00:26:17.661Z,4.00
2023-12-19T00:28:45.989Z,4.00
2023-12-19T00:33:51.314Z,4.00
2023-12-19T00:36:23.000Z,4.00
2023-12-19T00:38:51.708Z,4.00
2023-12-19T00:41:19.872Z,4.00
2023-12-19T00:43:48.145Z,3.90
2023-12-19T00:46:16.106Z,3.90
2023-12-19T00:48:45.435Z,3.90
2023-12-19T00:51:13.641Z,3.90
2023-12-19T00:53:43.207Z,3.90
2023-12-19T00:56:12.701Z,4.00
2023-12-19T00:58:41.496Z,4.10
2023-12-19T01:01:09.673Z,4.10
2023-12-19T01:03:38.434Z,4.10
2023-12-19T01:06:08.291Z,4.20
2023-12-19T01:08:36.898Z,4.20
2023-12-19T01:11:04.812Z,4.20
2023-12-19T01:13:32.622Z,4.20
2023-12-19T01:16:00.573Z,4.10
2023-12-19T01:18:28.640Z,4.10
2023-12-19T01:20:57.074Z,4.10
2023-12-19T01:23:26.866Z,4.10
2023-12-19T01:25:54.807Z,4.10
2023-12-19T01:28:22.720Z,4.10
2023-12-19T01:30:50.654Z,4.00
2023-12-19T01:33:18.702Z,4.00
2023-12-19T01:35:46.609Z,4.00
2023-12-19T01:38:15.304Z,4.00
2023-12-19T01:40:44.577Z,4.00
2023-12-19T01:43:20.917Z,4.00
2023-12-19T01:45:49.785Z,4.00
2023-12-19T01:48:19.125Z,3.90
2023-12-19T01:50:48.588Z,3.90
2023-12-19T01:53:17.377Z,3.90
2023-12-19T01:55:46.552Z,3.90
2023-12-19T01:58:16.596Z,4.00
2023-12-19T02:00:44.551Z,4.00
2023-12-19T02:03:12.625Z,3.80
2023-12-19T02:05:41.414Z,3.80
2023-12-19T02:08:09.283Z,3.70
2023-12-19T02:10:37.175Z,3.70
2023-12-19T02:13:06.541Z,3.60
2023-12-19T02:15:34.482Z,3.60
2023-12-19T02:18:15.178Z,3.60
2023-12-19T02:20:43.087Z,3.60
2023-12-19T02:23:12.355Z,3.60
2023-12-19T02:25:40.442Z,3.60
2023-12-19T02:28:09.350Z,5.10
2023-12-19T02:30:39.164Z,3.70
2023-12-19T02:33:08.661Z,3.70
2023-12-19T02:38:05.013Z,3.60
2023-12-19T02:40:34.467Z,3.60
2023-12-19T02:43:03.229Z,3.70
2023-12-19T02:45:33.411Z,3.60
2023-12-19T02:48:01.684Z,3.60
2023-12-19T02:50:29.667Z,3.50
2023-12-19T02:55:26.169Z,3.20
2023-12-19T02:57:55.362Z,3.20
2023-12-19T03:00:23.268Z,3.20
2023-12-19T03:02:52.226Z,3.20
2023-12-19T03:05:21.021Z,3.20
2023-12-19T03:07:49.015Z,3.30
2023-12-19T03:10:16.954Z,3.40
2023-12-19T03:12:45.112Z,3.40
2023-12-19T03:15:14.458Z,3.30
2023-12-19T03:17:42.286Z,3.40
2023-12-19T03:20:11.118Z,3.40
2023-12-19T03:22:38.912Z,3.30
2023-12-19T03:25:07.512Z,3.40
2023-12-19T03:27:35.457Z,3.40
2023-12-19T03:30:03.450Z,3.40
2023-12-19T03:32:32.625Z,3.40
2023-12-19T03:35:00.529Z,3.40
2023-12-19T03:37:28.336Z,3.50
2023-12-19T03:39:56.250Z,3.40
2023-12-19T03:42:24.103Z,3.40
2023-12-19T03:44:51.939Z,3.50
2023-12-19T03:47:19.700Z,3.40
2023-12-19T03:49:49.005Z,3.40
2023-12-19T03:52:17.011Z,3.40
2023-12-19T03:54:46.240Z,3.40
2023-12-19T03:57:14.062Z,3.40
2023-12-19T03:59:43.764Z,3.50
2023-12-19T04:02:11.608Z,3.50
2023-12-19T04:04:39.646Z,3.40
2023-12-19T04:07:09.198Z,3.40
2023-12-19T04:09:37.181Z,3.30
2023-12-19T04:12:07.383Z,3.10
2023-12-19T04:14:35.582Z,3.10
2023-12-19T04:17:03.683Z,3.00
2023-12-19T04:19:31.494Z,2.80
2023-12-19T04:21:59.522Z,2.80
2023-12-19T04:24:29.198Z,2.80
2023-12-19T04:26:57.042Z,2.60
2023-12-19T04:31:53.097Z,2.70
2023-12-19T04:34:21.000Z,2.70
2023-12-19T04:39:17.191Z,2.70
2023-12-19T04:41:46.382Z,2.70
2023-12-19T04:44:14.186Z,2.70
2023-12-19T04:46:44.100Z,2.70
2023-12-19T04:49:12.032Z,2.60
2023-12-19T04:51:39.966Z,2.60
2023-12-19T04:54:09.547Z,2.60
2023-12-19T04:56:37.909Z,2.70
2023-12-19T04:59:07.194Z,2.70
2023-12-19T05:01:35.496Z,2.70
2023-12-19T05:06:30.749Z,2.80
2023-12-19T05:08:58.638Z,2.70
2023-12-19T05:11:29.802Z,2.70
2023-12-19T05:16:27.207Z,2.70
2023-12-19T05:21:23.353Z,2.70
2023-12-19T05:23:51.311Z,2.80
2023-12-19T05:26:19.209Z,2.70
2023-12-19T05:31:17.854Z,2.80
2023-12-19T05:33:47.288Z,2.80
2023-12-19T05:36:15.158Z,2.90
2023-12-19T05:38:43.035Z,3.00
2023-12-19T05:46:15.392Z,3.00
2023-12-19T05:48:43.376Z,3.00
2023-12-19T05:51:13.720Z,2.90
2023-12-19T05:53:41.565Z,2.90
2023-12-19T05:56:13.985Z,2.70
2023-12-19T05:58:41.935Z,2.60
2023-12-19T06:01:09.889Z,2.60
2023-12-19T06:03:38.076Z,2.50
2023-12-19T06:06:06.588Z,2.60
2023-12-19T06:08:36.427Z,2.70
2023-12-19T06:11:04.329Z,2.80
2023-12-19T06:13:32.156Z,2.80
2023-12-19T06:16:00.060Z,2.70
2023-12-19T06:18:28.243Z,2.70
2023-12-19T06:20:56.195Z,2.70
2023-12-19T06:23:24.224Z,2.70
2023-12-19T06:25:53.670Z,2.80
2023-12-19T06:28:21.499Z,2.80
2023-12-19T06:30:49.400Z,2.70
2023-12-19T06:33:17.754Z,2.80
2023-12-19T06:35:47.681Z,2.80
2023-12-19T06:38:15.476Z,2.80
2023-12-19T06:40:43.476Z,2.80
2023-12-19T06:43:13.125Z,2.60
2023-12-19T06:45:41.193Z,2.60
2023-12-19T06:48:09.304Z,2.60
2023-12-19T06:50:37.210Z,2.40
2023-12-19T06:53:05.375Z,2.30
2023-12-19T06:55:33.286Z,2.40
2023-12-19T07:00:31.011Z,2.50
2023-12-19T07:02:59.251Z,2.40
2023-12-19T07:07:55.828Z,2.40
2023-12-19T07:10:23.710Z,2.40
2023-12-19T07:12:51.611Z,5.40
2023-12-19T07:15:19.482Z,2.60
2023-12-19T07:17:48.859Z,2.70
2023-12-19T07:20:16.963Z,2.70
2023-12-19T07:22:46.419Z,2.60
2023-12-19T07:25:14.389Z,2.60
2023-12-19T07:30:14.164Z,2.50
2023-12-19T07:32:42.563Z,2.60
2023-12-19T07:35:14.678Z,2.70
2023-12-19T07:37:43.251Z,2.70
2023-12-19T07:40:12.849Z,2.70
2023-12-19T07:42:42.437Z,2.80
2023-12-19T07:45:10.878Z,2.80
2023-12-19T08:10:36.844Z,2.80
2023-12-19T08:13:05.204Z,2.80
2023-12-19T08:18:05.229Z,2.90
2023-12-19T08:20:34.508Z,2.90
2023-12-19T08:23:04.028Z,3.00
2023-12-19T08:28:00.310Z,2.90
2023-12-19T08:30:29.100Z,2.80
2023-12-19T08:32:57.036Z,2.70
2023-12-19T08:35:25.550Z,2.80
2023-12-19T08:37:53.635Z,2.90
2023-12-19T08:40:22.922Z,2.90
2023-12-19T08:42:50.969Z,2.90
2023-12-19T08:45:20.252Z,3.00
2023-12-19T08:50:18.671Z,3.00
2023-12-19T08:52:48.828Z,3.10
2023-12-19T08:55:17.012Z,3.10
2023-12-19T09:00:20.936Z,3.10
2023-12-19T09:02:49.653Z,3.20
2023-12-19T09:05:18.955Z,3.20
2023-12-19T09:07:48.548Z,3.10
2023-12-19T09:10:18.077Z,3.10
2023-12-19T09:12:48.106Z,3.20
2023-12-19T09:15:16.092Z,3.10
2023-12-19T09:17:44.010Z,3.10
2023-12-19T09:20:12.328Z,3.10
2023-12-19T09:22:40.551Z,3.20
2023-12-19T09:25:15.927Z,3.10
2023-12-19T09:27:45.335Z,3.20
2023-12-19T09:30:17.458Z,3.20
2023-12-19T09:32:45.976Z,3.30
2023-12-19T09:35:14.274Z,3.20
2023-12-19T09:37:42.456Z,3.30
2023-12-19T09:45:14.492Z,3.20
2023-12-19T09:47:46.215Z,3.30
2023-12-19T09:50:15.846Z,3.20
2023-12-19T09:52:44.816Z,3.20
2023-12-19T09:55:13.175Z,3.20
2023-12-19T09:57:42.466Z,3.20
2023-12-19T10:00:13.023Z,3.10
2023-12-19T10:02:42.468Z,3.20
2023-12-19T10:07:48.517Z,3.30
2023-12-19T10:10:16.471Z,3.30
2023-12-19T10:15:22.588Z,3.20
2023-12-19T10:18:12.939Z,3.20
2023-12-19T10:20:43.329Z,3.30
2023-12-19T10:23:11.338Z,3.30
2023-12-19T10:25:45.445Z,3.30
2023-12-19T10:28:16.272Z,3.30
2023-12-19T10:30:45.987Z,3.40
2023-12-19T10:33:15.289Z,3.40
2023-12-19T10:35:46.419Z,3.40
2023-12-19T10:38:14.989Z,3.30
2023-12-19T10:40:43.204Z,3.30
2023-12-19T10:43:11.419Z,3.30
2023-12-19T10:45:40.112Z,3.20
2023-12-19T10:48:09.327Z,3.30
2023-12-19T10:50:37.565Z,3.30
2023-12-19T10:53:10.857Z,3.30
2023-12-19T11:08:38.851Z,3.30
2023-12-19T11:11:12.894Z,3.30
2023-12-19T11:13:43.455Z,3.40
2023-12-19T11:16:18.900Z,3.40
2023-12-19T11:18:55.874Z,3.50
2023-12-19T11:21:30.534Z,3.50
2023-12-19T11:24:08.208Z,3.70
2023-12-19T11:26:47.519Z,3.60
2023-12-19T11:29:46.573Z,3.60
2023-12-19T11:32:38.702Z,3.70
2023-12-19T11:35:12.630Z,3.90
2023-12-19T11:37:42.053Z,3.90
2023-12-19T11:40:20.038Z,4.00
2023-12-19T11:42:49.566Z,4.00
2023-12-19T11:45:36.606Z,4.00
2023-12-19T11:48:24.823Z,4.10
2023-12-19T11:50:52.718Z,4.10
2023-12-19T11:53:24.711Z,4.20
2023-12-19T11:56:06.658Z,4.20
2023-12-19T11:58:34.954Z,4.30
2023-12-19T12:06:00.138Z,4.30
2023-12-19T12:11:03.641Z,4.40
2023-12-19T12:13:33.621Z,4.40
2023-12-19T12:16:02.512Z,4.50
2023-12-19T12:18:32.550Z,4.50
2023-12-19T12:21:09.415Z,4.50
2023-12-19T12:23:37.702Z,4.60
2023-12-19T12:26:07.799Z,4.70
2023-12-19T12:28:36.451Z,4.60
2023-12-19T12:36:12.137Z,4.50
2023-12-19T12:38:40.233Z,4.40
2023-12-19T12:41:10.867Z,4.50
2023-12-19T12:43:39.804Z,4.50
2023-12-19T12:46:12.994Z,4.50
2023-12-19T12:48:42.887Z,4.40
2023-12-19T12:56:13.497Z,4.60
2023-12-19T13:01:10.326Z,4.50
2023-12-19T13:03:39.077Z,4.50
2023-12-19T13:06:09.010Z,4.60
2023-12-19T13:11:09.167Z,4.60
2023-12-19T13:13:38.914Z,4.60
2023-12-19T13:16:09.300Z,4.70
2023-12-19T13:26:06.806Z,4.80
2023-12-19T13:28:34.608Z,4.90
2023-12-19T13:31:05.660Z,5.00
2023-12-19T13:43:27.742Z,5.20
2023-12-19T13:45:55.852Z,5.20
2023-12-19T13:48:25.270Z,5.10
2023-12-19T13:50:53.235Z,5.10
2023-12-19T13:58:20.453Z,5.10
2023-12-19T14:00:48.495Z,5.10
2023-12-19T14:05:46.121Z,5.10
2023-12-19T14:08:16.076Z,4.00
2023-12-19T14:10:44.593Z,5.00
2023-12-19T14:15:40.906Z,5.00
2023-12-19T14:18:09.003Z,5.00
2023-12-19T14:23:06.722Z,5.10
2023-12-19T14:25:34.828Z,5.00
2023-12-19T14:35:27.996Z,5.00
2023-12-19T14:37:56.158Z,5.00
2023-12-19T14:40:25.472Z,5.00
2023-12-19T14:42:53.355Z,5.00
2023-12-19T14:50:17.812Z,4.90
2023-12-19T14:55:14.336Z,5.00
2023-12-19T14:57:44.095Z,5.00
2023-12-19T15:00:13.939Z,5.10
2023-12-19T15:05:11.909Z,5.00
2023-12-19T15:10:10.944Z,5.00
2023-12-19T15:12:39.853Z,4.90
2023-12-19T15:15:10.584Z,4.90
2023-12-19T15:17:38.477Z,4.90
2023-12-19T15:20:09.884Z,4.90
2023-12-19T15:25:06.992Z,4.70
2023-12-19T15:27:34.904Z,4.70
2023-12-19T15:35:00.871Z,4.60
2023-12-19T15:37:28.751Z,4.70
2023-12-19T15:42:24.914Z,4.70
2023-12-19T15:47:23.086Z,4.70
2023-12-19T15:49:52.339Z,4.80
2023-12-19T15:52:20.346Z,4.80
2023-12-19T15:54:48.221Z,4.70
2023-12-19T15:57:16.617Z,4.60
2023-12-19T15:59:44.496Z,4.60
2023-12-19T16:02:12.628Z,4.60
2023-12-19T16:07:14.679Z,4.50
2023-12-19T16:09:44.658Z,4.50
2023-12-19T16:12:12.513Z,4.60
2023-12-19T16:14:41.260Z,4.50
2023-12-19T16:17:09.576Z,4.60
2023-12-19T16:19:37.595Z,4.50
2023-12-19T16:22:06.145Z,4.40
2023-12-19T16:24:35.608Z,4.30
2023-12-19T16:27:03.519Z,4.30
2023-12-19T16:29:31.362Z,4.20
2023-12-19T16:34:28.887Z,4.30
2023-12-19T16:36:56.954Z,4.20
2023-12-19T16:39:25.006Z,4.20
2023-12-19T16:41:54.191Z,4.30
2023-12-19T16:44:22.071Z,4.30
2023-12-19T16:46:49.942Z,4.30
2023-12-19T16:51:46.741Z,4.30
2023-12-19T16:54:14.746Z,4.30
2023-12-19T16:56:43.913Z,4.30
2023-12-19T16:59:13.258Z,4.30
2023-12-19T17:04:10.878Z,4.30
2023-12-19T17:06:43.053Z,4.40
2023-12-19T17:09:11.986Z,4.50
2023-12-19T17:11:39.907Z,4.40
2023-12-19T17:14:07.737Z,4.40
2023-12-19T17:16:36.912Z,4.40
2023-12-19T17:19:04.816Z,4.40
2023-12-19T17:21:32.820Z,4.50
2023-12-19T17:24:01.665Z,4.60
2023-12-19T17:26:29.578Z,4.60
2023-12-19T17:28:57.446Z,4.60
2023-12-19T17:31:25.267Z,4.60
2023-12-19T17:33:54.561Z,4.50
2023-12-19T17:36:23.051Z,4.60
2023-12-19T17:38:51.117Z,4.60
2023-12-19T17:41:20.238Z,4.60
2023-12-19T17:43:48.203Z,4.60
2023-12-19T17:46:16.848Z,4.70
2023-12-19T17:48:46.481Z,4.70
2023-12-19T17:51:15.861Z,4.70
2023-12-19T17:53:43.734Z,4.70
2023-12-19T17:56:11.577Z,4.70
2023-12-19T17:58:39.616Z,4.80
2023-12-19T18:01:07.682Z,4.70
2023-12-19T18:03:36.094Z,4.70
2023-12-19T18:06:04.616Z,4.80
2023-12-19T18:08:38.129Z,4.80
2023-12-19T18:11:06.828Z,4.80
2023-12-19T18:13:34.693Z,4.90
2023-12-19T18:16:05.112Z,5.00
2023-12-19T18:18:34.102Z,4.90
2023-12-19T18:21:02.007Z,4.90
2023-12-19T18:23:30.154Z,4.80
2023-12-19T18:25:59.358Z,4.80
2023-12-19T18:28:27.250Z,4.90
2023-12-19T18:30:55.298Z,4.80
2023-12-19T18:33:23.190Z,4.90
2023-12-19T18:38:21.113Z,4.90
2023-12-19T18:40:49.078Z,4.80
2023-12-19T18:43:18.759Z,4.90
2023-12-19T18:45:46.668Z,4.90
2023-12-19T18:48:14.804Z,4.90
2023-12-19T18:50:42.558Z,4.90
2023-12-19T18:53:10.515Z,4.90
2023-12-19T18:55:38.581Z,4.90
2023-12-19T18:58:06.493Z,4.90
2023-12-19T19:00:36.167Z,4.90
2023-12-19T19:03:04.116Z,4.90
2023-12-19T19:05:32.125Z,4.90
2023-12-19T19:07:59.952Z,4.90
2023-12-19T19:10:27.850Z,4.90
2023-12-19T19:12:55.698Z,4.90
2023-12-19T19:15:24.369Z,5.00
2023-12-19T19:17:53.670Z,4.90
2023-12-19T19:20:38.285Z,4.90
2023-12-19T19:23:07.640Z,4.90
2023-12-19T19:25:35.716Z,5.10
2023-12-19T19:28:03.817Z,5.10
2023-12-19T19:30:32.045Z,5.10
2023-12-19T19:33:01.453Z,5.20
2023-12-19T19:35:29.378Z,5.20
2023-12-19T19:37:58.154Z,5.20
2023-12-19T19:40:35.431Z,5.20
2023-12-19T19:45:39.053Z,5.10
2023-12-19T19:48:09.229Z,5.10
2023-12-19T19:53:05.599Z,5.10
2023-12-19T19:55:33.535Z,5.20
2023-12-19T20:03:01.354Z,5.10
2023-12-19T20:05:31.941Z,5.10
2023-12-19T20:07:59.879Z,5.20
2023-12-19T20:12:56.660Z,5.20
2023-12-19T20:15:25.368Z,5.20
2023-12-19T20:17:54.008Z,5.20
2023-12-19T20:20:22.145Z,5.20
2023-12-19T20:22:51.963Z,5.30
2023-12-19T20:25:20.633Z,5.30
2023-12-19T20:30:20.079Z,5.30
2023-12-19T20:32:48.841Z,5.30
2023-12-19T20:35:17.543Z,5.30
2023-12-19T20:37:45.620Z,5.30
2023-12-19T20:40:18.751Z,5.30
2023-12-19T20:45:15.907Z,5.40
2023-12-19T20:47:44.186Z,5.40
2023-12-19T20:50:13.699Z,5.40
2023-12-19T20:52:50.658Z,5.40
2023-12-19T20:55:26.120Z,5.40
2023-12-19T20:57:54.437Z,5.40
2023-12-19T21:02:54.051Z,5.40
2023-12-19T21:05:24.349Z,5.40
2023-12-19T21:07:52.255Z,5.40
2023-12-19T21:10:20.772Z,5.50
2023-12-19T21:12:50.304Z,5.50
2023-12-19T21:15:18.741Z,5.60
2023-12-19T21:17:46.742Z,5.60
2023-12-19T21:20:15.561Z,5.60
2023-12-19T21:22:43.807Z,5.60
2023-12-19T21:25:11.865Z,5.60
2023-12-19T21:27:39.726Z,5.60
2023-12-19T21:30:10.141Z,5.60
2023-12-19T21:32:41.145Z,5.60
2023-12-19T21:35:10.633Z,5.60
2023-12-19T21:37:38.719Z,5.60
2023-12-19T21:40:07.804Z,5.60
2023-12-19T21:42:35.707Z,5.60
2023-12-19T21:45:05.630Z,5.60
2023-12-19T21:47:34.876Z,5.60
2023-12-19T21:52:31.678Z,5.60
2023-12-19T21:55:01.821Z,5.60
2023-12-19T21:57:31.470Z,5.60
2023-12-19T22:04:58.518Z,5.60
2023-12-19T22:07:26.785Z,5.60
2023-12-19T22:10:00.215Z,5.60
2023-12-19T22:12:30.890Z,5.60
2023-12-19T22:14:59.322Z,5.60
2023-12-19T22:19:58.902Z,5.60
2023-12-19T22:22:27.082Z,5.70
2023-12-19T22:24:54.934Z,5.70
2023-12-19T22:27:23.110Z,5.70
2023-12-19T22:29:51.185Z,5.60
2023-12-19T22:32:19.253Z,5.70
2023-12-19T22:34:47.086Z,5.70
2023-12-19T22:37:16.392Z,5.80
2023-12-19T22:42:12.515Z,5.70
2023-12-19T22:44:41.238Z,5.70
2023-12-19T22:47:09.082Z,5.70
2023-12-19T22:49:36.971Z,5.70
2023-12-19T22:52:05.423Z,5.70
2023-12-19T22:54:34.679Z,5.70
2023-12-19T22:57:02.585Z,5.70
2023-12-19T22:59:30.961Z,5.70
2023-12-19T23:01:58.882Z,5.70
2023-12-19T23:04:27.176Z,5.70
2023-12-19T23:09:23.768Z,5.70
2023-12-19T23:11:52.912Z,5.70
2023-12-19T23:14:23.296Z,5.70
2023-12-19T23:19:19.721Z,5.70
2023-12-19T23:21:47.781Z,5.70
2023-12-19T23:24:15.655Z,5.70
2023-12-19T23:29:13.833Z,5.60
2023-12-19T23:34:12.010Z,5.70
2023-12-19T23:36:40.037Z,5.70
2023-12-19T23:39:07.886Z,5.70
2023-12-19T23:44:03.845Z,5.80
2023-12-19T23:46:33.032Z,5.80
2023-12-19T23:49:00.949Z,5.80
2023-12-19T23:51:28.943Z,5.80
2023-12-19T23:53:56.745Z,5.70
2023-12-19T23:56:24.566Z,5.60
2023-12-19T23:58:52.376Z,5.60
